sensor_id;sensor_type;location;lat;lon;timestamp;temperature;humidity
6986;DHT22;3533;51.246;6.850;2024-01-15T00:00:38;18.80;37.20
6986;DHT22;3533;51.246;6.850;2024-01-15T00:03:04;18.80;37.20
6986;DHT22;3533;51.246;6.850;2024-01-15T00:05:30;18.80;37.20
6986;DHT22;3533;51.246;6.850;2024-01-15T00:07:55;18.80;37.10
6986;DHT22;3533;51.246;6.850;2024-01-15T00:10:21;18.80;37.20
6986;DHT22;3533;51.246;6.850;2024-01-15T00:12:46;18.80;37.20
6986;DHT22;3533;51.246;6.850;2024-01-15T00:15:12;18.80;37.10
6986;DHT22;3533;51.246;6.850;2024-01-15T00:17:38;18.80;37.20
6986;DHT22;3533;51.246;6.850;2024-01-15T00:20:04;18.80;37.20
6986;DHT22;3533;51.246;6.850;2024-01-15T00:22:30;18.80;37.20
6986;DHT22;3533;51.246;6.850;2024-01-15T00:24:56;18.80;37.20
6986;DHT22;3533;51.246;6.850;2024-01-15T00:27:21;18.80;37.20
6986;DHT22;3533;51.246;6.850;2024-01-15T00:29:47;18.80;37.20
6986;DHT22;3533;51.246;6.850;2024-01-15T00:32:13;18.80;37.20
6986;DHT22;3533;51.246;6.850;2024-01-15T00:34:39;18.80;37.20
6986;DHT22;3533;51.246;6.850;2024-01-15T00:37:04;18.80;37.20
6986;DHT22;3533;51.246;6.850;2024-01-15T00:39:32;18.80;37.20
6986;DHT22;3533;51.246;6.850;2024-01-15T00:41:58;18.80;37.20
6986;DHT22;3533;51.246;6.850;2024-01-15T00:44:23;18.80;37.20
6986;DHT22;3533;51.246;6.850;2024-01-15T00:46:49;18.80;37.20
6986;DHT22;3533;51.246;6.850;2024-01-15T00:49:15;18.80;37.20
6986;DHT22;3533;51.246;6.850;2024-01-15T00:51:40;18.80;37.20
6986;DHT22;3533;51.246;6.850;2024-01-15T00:54:06;18.80;37.20
6986;DHT22;3533;51.246;6.850;2024-01-15T00:56:32;18.80;37.20
6986;DHT22;3533;51.246;6.850;2024-01-15T00:58:57;18.80;37.20
6986;DHT22;3533;51.246;6.850;2024-01-15T01:01:23;18.80;37.20
6986;DHT22;3533;51.246;6.850;2024-01-15T01:03:48;18.80;37.20
6986;DHT22;3533;51.246;6.850;2024-01-15T01:06:14;18.80;37.20
6986;DHT22;3533;51.246;6.850;2024-01-15T01:08:39;18.80;37.20
6986;DHT22;3533;51.246;6.850;2024-01-15T01:11:05;18.80;37.20
6986;DHT22;3533;51.246;6.850;2024-01-15T01:13:32;18.80;37.20
6986;DHT22;3533;51.246;6.850;2024-01-15T01:15:58;18.80;37.20
6986;DHT22;3533;51.246;6.850;2024-01-15T01:18:23;18.80;37.30
6986;DHT22;3533;51.246;6.850;2024-01-15T01:20:49;18.80;37.20
6986;DHT22;3533;51.246;6.850;2024-01-15T01:23:15;18.80;37.20
6986;DHT22;3533;51.246;6.850;2024-01-15T01:25:40;18.80;37.20
6986;DHT22;3533;51.246;6.850;2024-01-15T01:28:06;18.80;37.20
6986;DHT22;3533;51.246;6.850;2024-01-15T01:30:31;18.80;37.20
6986;DHT22;3533;51.246;6.850;2024-01-15T01:32:57;18.80;37.20
6986;DHT22;3533;51.246;6.850;2024-01-15T01:35:23;18.80;37.20
6986;DHT22;3533;51.246;6.850;2024-01-15T01:37:48;18.80;37.10
6986;DHT22;3533;51.246;6.850;2024-01-15T01:40:14;18.80;37.20
6986;DHT22;3533;51.246;6.850;2024-01-15T01:42:40;18.70;37.10
6986;DHT22;3533;51.246;6.850;2024-01-15T01:45:05;18.80;37.20
6986;DHT22;3533;51.246;6.850;2024-01-15T01:47:31;18.80;37.30
6986;DHT22;3533;51.246;6.850;2024-01-15T01:49:57;18.80;37.20
6986;DHT22;3533;51.246;6.850;2024-01-15T01:52:23;18.80;37.20
6986;DHT22;3533;51.246;6.850;2024-01-15T01:54:49;18.70;37.10
6986;DHT22;3533;51.246;6.850;2024-01-15T01:57:16;18.80;37.20
6986;DHT22;3533;51.246;6.850;2024-01-15T01:59:42;18.80;37.20
6986;DHT22;3533;51.246;6.850;2024-01-15T02:02:08;18.80;37.30
6986;DHT22;3533;51.246;6.850;2024-01-15T02:04:33;18.70;37.10
6986;DHT22;3533;51.246;6.850;2024-01-15T02:07:01;18.80;37.20
6986;DHT22;3533;51.246;6.850;2024-01-15T02:09:27;18.70;37.10
6986;DHT22;3533;51.246;6.850;2024-01-15T02:11:53;18.80;37.20
6986;DHT22;3533;51.246;6.850;2024-01-15T02:14:19;18.70;37.20
6986;DHT22;3533;51.246;6.850;2024-01-15T02:16:44;18.80;37.20
6986;DHT22;3533;51.246;6.850;2024-01-15T02:19:17;18.70;37.10
6986;DHT22;3533;51.246;6.850;2024-01-15T02:21:43;18.70;37.10
6986;DHT22;3533;51.246;6.850;2024-01-15T02:24:08;18.70;37.20
6986;DHT22;3533;51.246;6.850;2024-01-15T02:26:34;18.70;37.20
6986;DHT22;3533;51.246;6.850;2024-01-15T02:29:01;18.70;37.20
6986;DHT22;3533;51.246;6.850;2024-01-15T02:31:27;18.70;37.20
6986;DHT22;3533;51.246;6.850;2024-01-15T02:33:53;18.70;37.20
6986;DHT22;3533;51.246;6.850;2024-01-15T02:36:18;18.70;37.20
6986;DHT22;3533;51.246;6.850;2024-01-15T02:38:44;18.70;37.20
6986;DHT22;3533;51.246;6.850;2024-01-15T02:41:09;18.70;37.20
6986;DHT22;3533;51.246;6.850;2024-01-15T02:43:35;18.70;37.20
6986;DHT22;3533;51.246;6.850;2024-01-15T02:46:00;18.70;37.20
6986;DHT22;3533;51.246;6.850;2024-01-15T02:48:26;18.70;37.20
6986;DHT22;3533;51.246;6.850;2024-01-15T02:50:51;18.70;37.20
6986;DHT22;3533;51.246;6.850;2024-01-15T02:53:17;18.70;37.20
6986;DHT22;3533;51.246;6.850;2024-01-15T02:55:43;18.70;37.20
6986;DHT22;3533;51.246;6.850;2024-01-15T02:58:08;18.70;37.10
6986;DHT22;3533;51.246;6.850;2024-01-15T03:00:34;18.70;37.20
6986;DHT22;3533;51.246;6.850;2024-01-15T03:02:59;18.70;37.20
6986;DHT22;3533;51.246;6.850;2024-01-15T03:05:25;18.70;37.20
6986;DHT22;3533;51.246;6.850;2024-01-15T03:07:50;18.70;37.20
6986;DHT22;3533;51.246;6.850;2024-01-15T03:10:16;18.70;37.10
6986;DHT22;3533;51.246;6.850;2024-01-15T03:12:41;18.70;37.20
6986;DHT22;3533;51.246;6.850;2024-01-15T03:15:07;18.70;37.10
6986;DHT22;3533;51.246;6.850;2024-01-15T03:17:33;18.70;37.10
6986;DHT22;3533;51.246;6.850;2024-01-15T03:19:58;18.70;37.20
6986;DHT22;3533;51.246;6.850;2024-01-15T03:22:24;18.70;37.10
6986;DHT22;3533;51.246;6.850;2024-01-15T03:24:49;18.80;37.20
6986;DHT22;3533;51.246;6.850;2024-01-15T03:27:15;18.70;37.10
6986;DHT22;3533;51.246;6.850;2024-01-15T03:29:41;18.70;37.10
6986;DHT22;3533;51.246;6.850;2024-01-15T03:32:07;18.70;37.10
6986;DHT22;3533;51.246;6.850;2024-01-15T03:34:32;18.80;37.20
6986;DHT22;3533;51.246;6.850;2024-01-15T03:36:58;18.70;37.10
6986;DHT22;3533;51.246;6.850;2024-01-15T03:39:24;18.80;37.20
6986;DHT22;3533;51.246;6.850;2024-01-15T03:41:50;18.80;37.20
6986;DHT22;3533;51.246;6.850;2024-01-15T03:44:15;18.70;37.10
6986;DHT22;3533;51.246;6.850;2024-01-15T03:46:41;18.80;37.20
6986;DHT22;3533;51.246;6.850;2024-01-15T03:49:06;18.70;37.20
6986;DHT22;3533;51.246;6.850;2024-01-15T03:51:32;18.70;37.10
6986;DHT22;3533;51.246;6.850;2024-01-15T03:53:58;18.70;37.10
6986;DHT22;3533;51.246;6.850;2024-01-15T03:56:23;18.70;37.10
6986;DHT22;3533;51.246;6.850;2024-01-15T03:58:49;18.70;37.10
6986;DHT22;3533;51.246;6.850;2024-01-15T04:01:14;18.70;37.10
6986;DHT22;3533;51.246;6.850;2024-01-15T04:03:40;18.70;37.10
6986;DHT22;3533;51.246;6.850;2024-01-15T04:06:05;18.70;37.10
6986;DHT22;3533;51.246;6.850;2024-01-15T04:08:31;18.70;37.10
6986;DHT22;3533;51.246;6.850;2024-01-15T04:10:56;18.70;37.10
6986;DHT22;3533;51.246;6.850;2024-01-15T04:13:22;18.70;37.20
6986;DHT22;3533;51.246;6.850;2024-01-15T04:15:48;18.70;37.20
6986;DHT22;3533;51.246;6.850;2024-01-15T04:18:16;18.70;37.10
6986;DHT22;3533;51.246;6.850;2024-01-15T04:20:41;18.70;37.10
6986;DHT22;3533;51.246;6.850;2024-01-15T04:23:07;18.70;37.10
6986;DHT22;3533;51.246;6.850;2024-01-15T04:25:32;18.70;37.10
6986;DHT22;3533;51.246;6.850;2024-01-15T04:27:58;18.70;37.10
6986;DHT22;3533;51.246;6.850;2024-01-15T04:30:24;18.70;37.10
6986;DHT22;3533;51.246;6.850;2024-01-15T04:32:49;18.70;37.10
6986;DHT22;3533;51.246;6.850;2024-01-15T04:35:15;18.70;37.10
6986;DHT22;3533;51.246;6.850;2024-01-15T04:37:40;18.70;37.10
6986;DHT22;3533;51.246;6.850;2024-01-15T04:40:07;18.70;37.10
6986;DHT22;3533;51.246;6.850;2024-01-15T04:42:32;18.70;37.10
6986;DHT22;3533;51.246;6.850;2024-01-15T04:44:58;18.70;37.10
6986;DHT22;3533;51.246;6.850;2024-01-15T04:47:24;18.70;37.10
6986;DHT22;3533;51.246;6.850;2024-01-15T04:49:49;18.70;37.10
6986;DHT22;3533;51.246;6.850;2024-01-15T04:52:15;18.70;37.10
6986;DHT22;3533;51.246;6.850;2024-01-15T04:54:40;18.80;37.10
6986;DHT22;3533;51.246;6.850;2024-01-15T04:57:06;18.80;37.10
6986;DHT22;3533;51.246;6.850;2024-01-15T04:59:32;18.80;37.10
6986;DHT22;3533;51.246;6.850;2024-01-15T05:01:57;18.80;37.10
6986;DHT22;3533;51.246;6.850;2024-01-15T05:04:23;18.80;37.10
6986;DHT22;3533;51.246;6.850;2024-01-15T05:06:50;18.80;37.00
6986;DHT22;3533;51.246;6.850;2024-01-15T05:09:15;18.80;37.00
6986;DHT22;3533;51.246;6.850;2024-01-15T05:11:41;18.80;37.00
6986;DHT22;3533;51.246;6.850;2024-01-15T05:14:07;18.90;37.00
6986;DHT22;3533;51.246;6.850;2024-01-15T05:16:32;18.90;36.90
6986;DHT22;3533;51.246;6.850;2024-01-15T05:18:58;18.90;36.90
6986;DHT22;3533;51.246;6.850;2024-01-15T05:21:23;18.90;36.80
6986;DHT22;3533;51.246;6.850;2024-01-15T05:23:49;18.90;36.80
6986;DHT22;3533;51.246;6.850;2024-01-15T05:26:14;18.90;36.70
6986;DHT22;3533;51.246;6.850;2024-01-15T05:28:43;19.00;36.80
6986;DHT22;3533;51.246;6.850;2024-01-15T05:31:09;19.00;36.80
6986;DHT22;3533;51.246;6.850;2024-01-15T05:33:35;19.00;36.80
6986;DHT22;3533;51.246;6.850;2024-01-15T05:36:00;19.00;36.80
6986;DHT22;3533;51.246;6.850;2024-01-15T05:38:27;19.00;36.80
6986;DHT22;3533;51.246;6.850;2024-01-15T05:40:52;19.00;36.70
6986;DHT22;3533;51.246;6.850;2024-01-15T05:43:18;19.00;36.70
6986;DHT22;3533;51.246;6.850;2024-01-15T05:45:43;19.00;36.80
6986;DHT22;3533;51.246;6.850;2024-01-15T05:48:10;19.00;36.70
6986;DHT22;3533;51.246;6.850;2024-01-15T05:50:35;19.00;36.80
6986;DHT22;3533;51.246;6.850;2024-01-15T05:53:01;19.00;36.70
6986;DHT22;3533;51.246;6.850;2024-01-15T05:55:28;19.00;36.80
6986;DHT22;3533;51.246;6.850;2024-01-15T05:57:53;19.00;36.70
6986;DHT22;3533;51.246;6.850;2024-01-15T06:00:19;19.00;36.70
6986;DHT22;3533;51.246;6.850;2024-01-15T06:02:44;19.00;36.70
6986;DHT22;3533;51.246;6.850;2024-01-15T06:05:10;19.00;36.70
6986;DHT22;3533;51.246;6.850;2024-01-15T06:07:35;19.00;36.70
6986;DHT22;3533;51.246;6.850;2024-01-15T06:10:02;19.00;36.70
6986;DHT22;3533;51.246;6.850;2024-01-15T06:12:28;19.00;36.60
6986;DHT22;3533;51.246;6.850;2024-01-15T06:14:53;19.00;36.60
6986;DHT22;3533;51.246;6.850;2024-01-15T06:17:19;19.00;36.60
6986;DHT22;3533;51.246;6.850;2024-01-15T06:19:44;19.00;36.60
6986;DHT22;3533;51.246;6.850;2024-01-15T06:22:10;19.00;36.70
6986;DHT22;3533;51.246;6.850;2024-01-15T06:24:36;19.00;36.70
6986;DHT22;3533;51.246;6.850;2024-01-15T06:27:01;19.00;36.60
6986;DHT22;3533;51.246;6.850;2024-01-15T06:29:28;19.00;36.60
6986;DHT22;3533;51.246;6.850;2024-01-15T06:31:53;19.00;36.60
6986;DHT22;3533;51.246;6.850;2024-01-15T06:34:19;19.00;36.50
6986;DHT22;3533;51.246;6.850;2024-01-15T06:36:45;19.00;36.60
6986;DHT22;3533;51.246;6.850;2024-01-15T06:39:11;19.00;37.30
6986;DHT22;3533;51.246;6.850;2024-01-15T06:41:36;19.00;36.50
6986;DHT22;3533;51.246;6.850;2024-01-15T06:44:12;19.00;36.50
6986;DHT22;3533;51.246;6.850;2024-01-15T06:46:44;19.00;36.40
6986;DHT22;3533;51.246;6.850;2024-01-15T06:49:10;18.90;36.30
6986;DHT22;3533;51.246;6.850;2024-01-15T06:51:35;18.90;36.20
6986;DHT22;3533;51.246;6.850;2024-01-15T06:54:01;18.90;36.20
6986;DHT22;3533;51.246;6.850;2024-01-15T06:56:27;18.90;36.20
6986;DHT22;3533;51.246;6.850;2024-01-15T06:58:53;18.90;36.20
6986;DHT22;3533;51.246;6.850;2024-01-15T07:01:18;18.90;36.10
6986;DHT22;3533;51.246;6.850;2024-01-15T07:03:44;18.90;36.20
6986;DHT22;3533;51.246;6.850;2024-01-15T07:06:10;18.90;36.10
6986;DHT22;3533;51.246;6.850;2024-01-15T07:08:35;18.90;36.10
6986;DHT22;3533;51.246;6.850;2024-01-15T07:11:04;18.90;36.10
6986;DHT22;3533;51.246;6.850;2024-01-15T07:13:30;18.90;36.10
6986;DHT22;3533;51.246;6.850;2024-01-15T07:15:55;18.90;36.10
6986;DHT22;3533;51.246;6.850;2024-01-15T07:18:21;18.90;36.10
6986;DHT22;3533;51.246;6.850;2024-01-15T07:20:46;18.90;36.00
6986;DHT22;3533;51.246;6.850;2024-01-15T07:23:12;18.90;36.10
6986;DHT22;3533;51.246;6.850;2024-01-15T07:25:37;18.90;36.00
6986;DHT22;3533;51.246;6.850;2024-01-15T07:28:03;18.90;36.00
6986;DHT22;3533;51.246;6.850;2024-01-15T07:30:29;18.90;36.00
6986;DHT22;3533;51.246;6.850;2024-01-15T07:32:54;18.90;36.00
6986;DHT22;3533;51.246;6.850;2024-01-15T07:35:21;18.90;36.00
6986;DHT22;3533;51.246;6.850;2024-01-15T07:37:46;18.90;36.00
6986;DHT22;3533;51.246;6.850;2024-01-15T07:40:12;18.90;36.00
6986;DHT22;3533;51.246;6.850;2024-01-15T07:42:37;18.90;36.00
6986;DHT22;3533;51.246;6.850;2024-01-15T07:45:08;18.90;36.00
6986;DHT22;3533;51.246;6.850;2024-01-15T07:47:33;18.90;36.10
6986;DHT22;3533;51.246;6.850;2024-01-15T07:49:59;18.90;36.00
6986;DHT22;3533;51.246;6.850;2024-01-15T07:52:25;18.90;36.00
6986;DHT22;3533;51.246;6.850;2024-01-15T07:54:50;18.90;36.00
6986;DHT22;3533;51.246;6.850;2024-01-15T07:57:16;18.90;36.00
6986;DHT22;3533;51.246;6.850;2024-01-15T07:59:41;18.90;36.00
6986;DHT22;3533;51.246;6.850;2024-01-15T08:02:07;18.90;36.00
6986;DHT22;3533;51.246;6.850;2024-01-15T08:04:32;18.90;36.00
6986;DHT22;3533;51.246;6.850;2024-01-15T08:06:58;18.90;36.00
6986;DHT22;3533;51.246;6.850;2024-01-15T08:09:24;18.90;36.00
6986;DHT22;3533;51.246;6.850;2024-01-15T08:11:49;18.90;36.00
6986;DHT22;3533;51.246;6.850;2024-01-15T08:14:15;18.90;36.00
6986;DHT22;3533;51.246;6.850;2024-01-15T08:16:40;18.90;36.10
6986;DHT22;3533;51.246;6.850;2024-01-15T08:19:06;18.90;36.10
6986;DHT22;3533;51.246;6.850;2024-01-15T08:21:32;18.90;36.20
6986;DHT22;3533;51.246;6.850;2024-01-15T08:23:59;18.90;36.20
6986;DHT22;3533;51.246;6.850;2024-01-15T08:26:25;18.90;36.20
6986;DHT22;3533;51.246;6.850;2024-01-15T08:28:50;18.90;36.30
6986;DHT22;3533;51.246;6.850;2024-01-15T08:31:16;18.90;36.30
6986;DHT22;3533;51.246;6.850;2024-01-15T08:33:42;18.90;36.30
6986;DHT22;3533;51.246;6.850;2024-01-15T08:36:08;18.90;36.40
6986;DHT22;3533;51.246;6.850;2024-01-15T08:38:34;18.90;36.50
6986;DHT22;3533;51.246;6.850;2024-01-15T08:41:00;18.90;36.50
6986;DHT22;3533;51.246;6.850;2024-01-15T08:43:26;18.90;36.60
6986;DHT22;3533;51.246;6.850;2024-01-15T08:45:52;18.90;36.60
6986;DHT22;3533;51.246;6.850;2024-01-15T08:48:18;18.90;36.60
6986;DHT22;3533;51.246;6.850;2024-01-15T08:50:43;18.90;36.60
6986;DHT22;3533;51.246;6.850;2024-01-15T08:53:13;18.90;36.70
6986;DHT22;3533;51.246;6.850;2024-01-15T08:55:38;18.90;36.70
6986;DHT22;3533;51.246;6.850;2024-01-15T08:58:04;18.90;36.70
6986;DHT22;3533;51.246;6.850;2024-01-15T09:00:30;18.90;36.70
6986;DHT22;3533;51.246;6.850;2024-01-15T09:02:56;18.90;36.80
6986;DHT22;3533;51.246;6.850;2024-01-15T09:05:22;18.90;36.80
6986;DHT22;3533;51.246;6.850;2024-01-15T09:07:48;18.90;36.80
6986;DHT22;3533;51.246;6.850;2024-01-15T09:10:14;18.90;36.80
6986;DHT22;3533;51.246;6.850;2024-01-15T09:12:39;18.90;36.90
6986;DHT22;3533;51.246;6.850;2024-01-15T09:15:05;18.90;36.90
6986;DHT22;3533;51.246;6.850;2024-01-15T09:17:34;18.90;36.80
6986;DHT22;3533;51.246;6.850;2024-01-15T09:19:59;18.90;36.90
6986;DHT22;3533;51.246;6.850;2024-01-15T09:22:25;18.90;36.90
6986;DHT22;3533;51.246;6.850;2024-01-15T09:24:52;18.90;36.90
6986;DHT22;3533;51.246;6.850;2024-01-15T09:27:17;18.90;36.90
6986;DHT22;3533;51.246;6.850;2024-01-15T09:29:43;18.90;36.90
6986;DHT22;3533;51.246;6.850;2024-01-15T09:32:11;18.90;36.90
6986;DHT22;3533;51.246;6.850;2024-01-15T09:34:37;18.90;36.90
6986;DHT22;3533;51.246;6.850;2024-01-15T09:37:03;18.90;36.90
6986;DHT22;3533;51.246;6.850;2024-01-15T09:39:29;18.80;36.80
6986;DHT22;3533;51.246;6.850;2024-01-15T09:41:56;18.80;36.80
6986;DHT22;3533;51.246;6.850;2024-01-15T09:44:21;18.80;36.70
6986;DHT22;3533;51.246;6.850;2024-01-15T09:46:48;18.80;36.80
6986;DHT22;3533;51.246;6.850;2024-01-15T09:49:16;18.80;36.80
6986;DHT22;3533;51.246;6.850;2024-01-15T09:51:42;18.80;36.70
6986;DHT22;3533;51.246;6.850;2024-01-15T09:54:08;18.80;36.70
6986;DHT22;3533;51.246;6.850;2024-01-15T09:56:34;18.80;36.80
6986;DHT22;3533;51.246;6.850;2024-01-15T09:59:01;18.80;36.80
6986;DHT22;3533;51.246;6.850;2024-01-15T10:01:26;18.80;36.70
6986;DHT22;3533;51.246;6.850;2024-01-15T10:03:54;18.80;36.80
6986;DHT22;3533;51.246;6.850;2024-01-15T10:06:21;18.80;36.80
6986;DHT22;3533;51.246;6.850;2024-01-15T10:08:48;18.80;36.80
6986;DHT22;3533;51.246;6.850;2024-01-15T10:11:14;18.80;36.70
6986;DHT22;3533;51.246;6.850;2024-01-15T10:13:40;18.80;36.70
6986;DHT22;3533;51.246;6.850;2024-01-15T10:16:06;18.80;36.70
6986;DHT22;3533;51.246;6.850;2024-01-15T10:18:32;18.80;36.70
6986;DHT22;3533;51.246;6.850;2024-01-15T10:20:58;18.80;36.80
6986;DHT22;3533;51.246;6.850;2024-01-15T10:23:24;18.80;36.70
6986;DHT22;3533;51.246;6.850;2024-01-15T10:25:50;18.80;36.80
6986;DHT22;3533;51.246;6.850;2024-01-15T10:28:17;18.80;36.80
6986;DHT22;3533;51.246;6.850;2024-01-15T10:30:44;18.80;36.80
6986;DHT22;3533;51.246;6.850;2024-01-15T10:33:10;18.80;36.80
6986;DHT22;3533;51.246;6.850;2024-01-15T10:35:37;18.80;36.80
6986;DHT22;3533;51.246;6.850;2024-01-15T10:38:03;18.80;36.70
6986;DHT22;3533;51.246;6.850;2024-01-15T10:40:31;18.80;36.80
6986;DHT22;3533;51.246;6.850;2024-01-15T10:42:56;18.80;36.80
6986;DHT22;3533;51.246;6.850;2024-01-15T10:45:22;18.80;36.80
6986;DHT22;3533;51.246;6.850;2024-01-15T10:47:48;18.80;36.80
6986;DHT22;3533;51.246;6.850;2024-01-15T10:50:14;18.80;36.80
6986;DHT22;3533;51.246;6.850;2024-01-15T10:52:40;18.80;36.80
6986;DHT22;3533;51.246;6.850;2024-01-15T10:55:09;18.80;36.80
6986;DHT22;3533;51.246;6.850;2024-01-15T10:57:38;18.80;36.80
6986;DHT22;3533;51.246;6.850;2024-01-15T11:00:05;18.80;36.80
6986;DHT22;3533;51.246;6.850;2024-01-15T11:02:36;18.80;36.80
6986;DHT22;3533;51.246;6.850;2024-01-15T11:05:02;18.80;36.80
6986;DHT22;3533;51.246;6.850;2024-01-15T11:07:31;18.80;36.80
6986;DHT22;3533;51.246;6.850;2024-01-15T11:09:57;18.80;36.90
6986;DHT22;3533;51.246;6.850;2024-01-15T11:12:25;18.80;36.80
6986;DHT22;3533;51.246;6.850;2024-01-15T11:14:51;18.80;36.90
6986;DHT22;3533;51.246;6.850;2024-01-15T11:17:20;18.80;36.80
6986;DHT22;3533;51.246;6.850;2024-01-15T11:19:49;18.80;36.80
6986;DHT22;3533;51.246;6.850;2024-01-15T11:25:18;18.80;36.90
6986;DHT22;3533;51.246;6.850;2024-01-15T11:27:47;18.80;36.80
6986;DHT22;3533;51.246;6.850;2024-01-15T11:30:13;18.80;36.90
6986;DHT22;3533;51.246;6.850;2024-01-15T11:32:40;18.80;36.80
6986;DHT22;3533;51.246;6.850;2024-01-15T11:35:09;18.80;36.90
6986;DHT22;3533;51.246;6.850;2024-01-15T11:43:02;18.80;36.90
6986;DHT22;3533;51.246;6.850;2024-01-15T11:45:28;18.80;36.90
6986;DHT22;3533;51.246;6.850;2024-01-15T11:48:12;18.80;36.80
6986;DHT22;3533;51.246;6.850;2024-01-15T11:50:57;18.80;36.80
6986;DHT22;3533;51.246;6.850;2024-01-15T11:53:36;18.80;36.90
6986;DHT22;3533;51.246;6.850;2024-01-15T11:56:14;18.80;36.80
6986;DHT22;3533;51.246;6.850;2024-01-15T11:58:40;18.80;36.80
6986;DHT22;3533;51.246;6.850;2024-01-15T12:01:05;18.80;36.80
6986;DHT22;3533;51.246;6.850;2024-01-15T12:03:32;18.80;36.80
6986;DHT22;3533;51.246;6.850;2024-01-15T12:05:58;18.80;36.80
6986;DHT22;3533;51.246;6.850;2024-01-15T12:08:25;18.80;36.70
6986;DHT22;3533;51.246;6.850;2024-01-15T12:10:52;18.80;36.70
6986;DHT22;3533;51.246;6.850;2024-01-15T12:13:18;18.80;36.70
6986;DHT22;3533;51.246;6.850;2024-01-15T12:15:45;18.80;36.70
6986;DHT22;3533;51.246;6.850;2024-01-15T12:18:13;18.80;36.80
6986;DHT22;3533;51.246;6.850;2024-01-15T12:20:39;18.80;36.70
6986;DHT22;3533;51.246;6.850;2024-01-15T12:23:05;18.90;36.90
6986;DHT22;3533;51.246;6.850;2024-01-15T12:25:32;18.80;36.80
6986;DHT22;3533;51.246;6.850;2024-01-15T12:27:59;18.90;36.80
6986;DHT22;3533;51.246;6.850;2024-01-15T12:30:29;18.80;36.80
6986;DHT22;3533;51.246;6.850;2024-01-15T12:32:57;18.90;36.80
6986;DHT22;3533;51.246;6.850;2024-01-15T12:35:24;18.80;36.80
6986;DHT22;3533;51.246;6.850;2024-01-15T12:37:51;18.80;36.80
6986;DHT22;3533;51.246;6.850;2024-01-15T12:40:20;18.90;36.90
6986;DHT22;3533;51.246;6.850;2024-01-15T12:42:46;18.80;36.80
6986;DHT22;3533;51.246;6.850;2024-01-15T12:45:12;18.90;36.90
6986;DHT22;3533;51.246;6.850;2024-01-15T12:47:39;18.90;36.90
6986;DHT22;3533;51.246;6.850;2024-01-15T12:50:09;18.80;36.80
6986;DHT22;3533;51.246;6.850;2024-01-15T12:52:36;18.90;36.90
6986;DHT22;3533;51.246;6.850;2024-01-15T12:55:04;18.90;36.90
6986;DHT22;3533;51.246;6.850;2024-01-15T12:57:30;18.90;36.90
6986;DHT22;3533;51.246;6.850;2024-01-15T12:59:56;18.80;36.80
6986;DHT22;3533;51.246;6.850;2024-01-15T13:02:22;18.80;36.80
6986;DHT22;3533;51.246;6.850;2024-01-15T13:04:48;18.80;36.80
6986;DHT22;3533;51.246;6.850;2024-01-15T13:07:14;18.80;36.70
6986;DHT22;3533;51.246;6.850;2024-01-15T13:09:39;18.80;36.80
6986;DHT22;3533;51.246;6.850;2024-01-15T13:12:05;18.80;36.80
6986;DHT22;3533;51.246;6.850;2024-01-15T13:14:31;18.80;36.80
6986;DHT22;3533;51.246;6.850;2024-01-15T13:16:58;18.90;36.90
6986;DHT22;3533;51.246;6.850;2024-01-15T13:19:25;18.80;36.80
6986;DHT22;3533;51.246;6.850;2024-01-15T13:21:50;18.80;36.80
6986;DHT22;3533;51.246;6.850;2024-01-15T13:24:17;18.80;36.70
6986;DHT22;3533;51.246;6.850;2024-01-15T13:26:42;18.80;36.70
6986;DHT22;3533;51.246;6.850;2024-01-15T13:29:08;18.90;36.80
6986;DHT22;3533;51.246;6.850;2024-01-15T13:31:33;18.90;36.80
6986;DHT22;3533;51.246;6.850;2024-01-15T13:33:59;18.80;36.70
6986;DHT22;3533;51.246;6.850;2024-01-15T13:36:26;18.90;36.80
6986;DHT22;3533;51.246;6.850;2024-01-15T13:38:52;18.80;36.70
6986;DHT22;3533;51.246;6.850;2024-01-15T13:41:22;18.80;36.70
6986;DHT22;3533;51.246;6.850;2024-01-15T13:43:53;18.90;36.80
6986;DHT22;3533;51.246;6.850;2024-01-15T13:46:20;18.90;36.80
6986;DHT22;3533;51.246;6.850;2024-01-15T13:48:47;18.80;36.70
6986;DHT22;3533;51.246;6.850;2024-01-15T13:51:13;18.90;36.80
6986;DHT22;3533;51.246;6.850;2024-01-15T13:53:38;18.80;36.70
6986;DHT22;3533;51.246;6.850;2024-01-15T13:56:05;18.90;36.80
6986;DHT22;3533;51.246;6.850;2024-01-15T13:58:31;18.90;36.80
6986;DHT22;3533;51.246;6.850;2024-01-15T14:00:58;18.90;36.80
6986;DHT22;3533;51.246;6.850;2024-01-15T14:03:23;18.90;36.90
6986;DHT22;3533;51.246;6.850;2024-01-15T14:05:51;18.90;36.80
6986;DHT22;3533;51.246;6.850;2024-01-15T14:08:16;18.90;36.80
6986;DHT22;3533;51.246;6.850;2024-01-15T14:10:42;18.90;36.80
6986;DHT22;3533;51.246;6.850;2024-01-15T14:13:07;18.90;36.80
6986;DHT22;3533;51.246;6.850;2024-01-15T14:15:34;18.90;36.90
6986;DHT22;3533;51.246;6.850;2024-01-15T14:18:00;18.90;36.80
6986;DHT22;3533;51.246;6.850;2024-01-15T14:20:26;18.90;36.80
6986;DHT22;3533;51.246;6.850;2024-01-15T14:22:52;18.90;36.90
6986;DHT22;3533;51.246;6.850;2024-01-15T14:25:18;18.90;36.90
6986;DHT22;3533;51.246;6.850;2024-01-15T14:27:44;18.90;36.90
6986;DHT22;3533;51.246;6.850;2024-01-15T14:30:10;18.90;36.90
6986;DHT22;3533;51.246;6.850;2024-01-15T14:32:37;18.90;36.90
6986;DHT22;3533;51.246;6.850;2024-01-15T14:35:02;18.90;36.90
6986;DHT22;3533;51.246;6.850;2024-01-15T14:37:30;18.90;37.00
6986;DHT22;3533;51.246;6.850;2024-01-15T14:39:56;18.90;37.00
6986;DHT22;3533;51.246;6.850;2024-01-15T14:42:22;18.90;37.00
6986;DHT22;3533;51.246;6.850;2024-01-15T14:44:47;18.90;36.90
6986;DHT22;3533;51.246;6.850;2024-01-15T14:47:13;18.90;37.00
6986;DHT22;3533;51.246;6.850;2024-01-15T14:49:38;18.90;37.00
6986;DHT22;3533;51.246;6.850;2024-01-15T14:52:04;18.90;37.00
6986;DHT22;3533;51.246;6.850;2024-01-15T14:54:33;18.90;37.00
6986;DHT22;3533;51.246;6.850;2024-01-15T14:56:59;18.90;37.10
6986;DHT22;3533;51.246;6.850;2024-01-15T14:59:24;18.90;37.00
6986;DHT22;3533;51.246;6.850;2024-01-15T15:01:50;18.90;37.00
6986;DHT22;3533;51.246;6.850;2024-01-15T15:04:15;18.90;37.10
6986;DHT22;3533;51.246;6.850;2024-01-15T15:06:41;18.90;37.00
6986;DHT22;3533;51.246;6.850;2024-01-15T15:09:06;18.90;37.10
6986;DHT22;3533;51.246;6.850;2024-01-15T15:11:35;18.90;37.10
6986;DHT22;3533;51.246;6.850;2024-01-15T15:14:01;18.90;37.00
6986;DHT22;3533;51.246;6.850;2024-01-15T15:16:27;18.90;37.10
6986;DHT22;3533;51.246;6.850;2024-01-15T15:18:53;18.90;37.00
6986;DHT22;3533;51.246;6.850;2024-01-15T15:21:20;18.90;37.00
6986;DHT22;3533;51.246;6.850;2024-01-15T15:23:45;18.90;37.10
6986;DHT22;3533;51.246;6.850;2024-01-15T15:26:13;18.90;37.10
6986;DHT22;3533;51.246;6.850;2024-01-15T15:28:38;18.90;37.10
6986;DHT22;3533;51.246;6.850;2024-01-15T15:31:05;18.90;37.00
6986;DHT22;3533;51.246;6.850;2024-01-15T15:33:33;18.90;37.00
6986;DHT22;3533;51.246;6.850;2024-01-15T15:35:59;18.90;37.10
6986;DHT22;3533;51.246;6.850;2024-01-15T15:38:30;18.90;37.00
6986;DHT22;3533;51.246;6.850;2024-01-15T15:40:55;18.90;37.10
6986;DHT22;3533;51.246;6.850;2024-01-15T15:43:21;18.90;37.00
6986;DHT22;3533;51.246;6.850;2024-01-15T15:45:47;18.90;37.00
6986;DHT22;3533;51.246;6.850;2024-01-15T15:48:12;18.90;37.10
6986;DHT22;3533;51.246;6.850;2024-01-15T15:50:38;18.90;37.10
6986;DHT22;3533;51.246;6.850;2024-01-15T15:53:03;18.90;37.00
6986;DHT22;3533;51.246;6.850;2024-01-15T15:55:29;18.90;37.00
6986;DHT22;3533;51.246;6.850;2024-01-15T15:57:54;18.90;37.10
6986;DHT22;3533;51.246;6.850;2024-01-15T16:00:20;18.90;37.00
6986;DHT22;3533;51.246;6.850;2024-01-15T16:02:45;18.90;37.00